Time;durP1;ratioP1;P1;durP2;ratioP2;P2;SDS_P1;SDS_P2;PMS_P1;PMS_P2;Temp;Humidity;BMP_temperature;BMP_pressure;BME280_temperature;BME280_humidity;BME280_pressure;Samples;Min_cycle;Max_cycle;Signal;HPM_P1;HPM_P2
2022/12/16 00:00:00;;;;;;;41.92;22.10;;;;;;;;;;1038277;28;20025;-77
2022/12/16 00:00:31;;;;;;;39.83;22.15;;;;;;;;;;1042825;28;20486;-77
2022/12/16 00:01:18;;;;;;;37.92;20.63;;;;;;;;;;1039085;28;20022;-77
2022/12/16 00:01:48;;;;;;;42.40;23.20;;;;;;;;;;1038423;28;20045;-77
2022/12/16 00:02:19;;;;;;;39.50;18.42;;;;;;;;;;1037651;28;20029;-77
2022/12/16 00:02:50;;;;;;;40.97;20.80;;;;;;;;;;1040513;28;20532;-77
2022/12/16 00:03:20;;;;;;;30.88;18.77;;;;;;;;;;1043644;28;20489;-77
2022/12/16 00:03:52;;;;;;;36.17;20.77;;;;;;;;;;1038927;28;20022;-77
2022/12/16 00:04:23;;;;;;;32.08;16.80;;;;;;;;;;1037760;28;20036;-77
2022/12/16 00:04:53;;;;;;;38.28;21.02;;;;;;;;;;1038349;28;20120;-77
2022/12/16 00:05:24;;;;;;;35.05;18.33;;;;;;;;;;1035644;28;20152;-77
2022/12/16 00:05:55;;;;;;;33.47;18.50;;;;;;;;;;1035697;28;20032;-77
2022/12/16 00:06:26;;;;;;;43.35;20.88;;;;;;;;;;1035719;28;20057;-76
2022/12/16 00:06:57;;;;;;;39.55;20.50;;;;;;;;;;1035675;28;20084;-77
2022/12/16 00:07:27;;;;;;;38.97;19.45;;;;;;;;;;1037043;28;20484;-77
2022/12/16 00:07:58;;;;;;;40.17;21.63;;;;;;;;;;1044174;28;20025;-76
2022/12/16 00:08:29;;;;;;;39.63;20.95;;;;;;;;;;1038832;28;20477;-77
2022/12/16 00:09:00;;;;;;;38.95;21.27;;;;;;;;;;1036756;28;20021;-77
2022/12/16 00:09:30;;;;;;;37.17;20.85;;;;;;;;;;1038346;28;20064;-77
2022/12/16 00:10:01;;;;;;;37.40;20.38;;;;;;;;;;1039325;28;20082;-76
2022/12/16 00:10:51;;;;;;;39.78;21.50;;;;;;;;;;1044000;28;20124;-76
2022/12/16 00:11:22;;;;;;;37.20;22.90;;;;;;;;;;1043952;28;20485;-76
2022/12/16 00:11:53;;;;;;;41.15;22.55;;;;;;;;;;1044170;28;20017;-77
2022/12/16 00:12:23;;;;;;;40.28;21.98;;;;;;;;;;1038248;28;20033;-77
2022/12/16 00:12:54;;;;;;;44.08;24.00;;;;;;;;;;1037019;28;20068;-77
2022/12/16 00:13:24;;;;;;;39.83;22.73;;;;;;;;;;1038690;28;20021;-76
2022/12/16 00:13:55;;;;;;;44.85;21.15;;;;;;;;;;1037839;28;20079;-77
2022/12/16 00:14:28;;;;;;;48.00;25.50;;;;;;;;;;1037729;28;20037;-77
2022/12/16 00:14:58;;;;;;;39.28;21.25;;;;;;;;;;1035434;28;20022;-77
2022/12/16 00:15:29;;;;;;;47.63;24.02;;;;;;;;;;1035566;28;20412;-77
2022/12/16 00:16:03;;;;;;;38.83;22.55;;;;;;;;;;1030763;28;20044;-77
2022/12/16 00:16:34;;;;;;;42.38;22.40;;;;;;;;;;1035648;28;20450;-77
2022/12/16 00:17:05;;;;;;;49.50;22.73;;;;;;;;;;1029706;28;20118;-77
2022/12/16 00:17:35;;;;;;;39.78;21.85;;;;;;;;;;1032115;28;20022;-78
2022/12/16 00:18:06;;;;;;;36.13;22.17;;;;;;;;;;1035357;28;20026;-77
2022/12/16 00:18:36;;;;;;;47.45;23.95;;;;;;;;;;1037832;28;20045;-76
2022/12/16 00:19:07;;;;;;;53.08;26.75;;;;;;;;;;1038532;28;20443;-76
2022/12/16 00:19:37;;;;;;;42.53;25.67;;;;;;;;;;1038723;28;20013;-77
2022/12/16 00:20:08;;;;;;;58.42;32.00;;;;;;;;;;1035193;28;20026;-76
2022/12/16 00:20:51;;;;;;;57.63;27.83;;;;;;;;;;1035892;28;20056;-76
2022/12/16 00:21:27;;;;;;;51.50;26.00;;;;;;;;;;1037783;28;20037;-76
2022/12/16 00:21:57;;;;;;;45.85;26.30;;;;;;;;;;1042452;28;20460;-76
2022/12/16 00:22:28;;;;;;;51.20;25.45;;;;;;;;;;1044178;28;20056;-76
2022/12/16 00:22:59;;;;;;;41.90;24.58;;;;;;;;;;1038863;28;20164;-77
2022/12/16 00:23:29;;;;;;;46.40;25.92;;;;;;;;;;1038018;28;20025;-76
2022/12/16 00:24:00;;;;;;;43.53;23.27;;;;;;;;;;1037890;28;20017;-76
2022/12/16 00:24:30;;;;;;;38.97;23.77;;;;;;;;;;1038719;28;20147;-76
2022/12/16 00:25:01;;;;;;;44.15;23.20;;;;;;;;;;1037022;28;20031;-77
2022/12/16 00:25:31;;;;;;;43.50;26.75;;;;;;;;;;1037733;28;20033;-77
2022/12/16 00:26:02;;;;;;;51.58;26.73;;;;;;;;;;1037951;28;20026;-76
2022/12/16 00:26:33;;;;;;;49.50;25.45;;;;;;;;;;1034310;28;20472;-77
2022/12/16 00:27:03;;;;;;;50.67;25.48;;;;;;;;;;1035049;28;20054;-76
2022/12/16 00:27:34;;;;;;;40.63;21.90;;;;;;;;;;1034524;28;20025;-76
2022/12/16 00:28:05;;;;;;;44.22;21.13;;;;;;;;;;1038898;28;20160;-76
2022/12/16 00:28:35;;;;;;;41.40;20.67;;;;;;;;;;1043665;28;20071;-76
2022/12/16 00:29:06;;;;;;;50.92;24.48;;;;;;;;;;1037457;28;20102;-76
2022/12/16 00:29:37;;;;;;;46.75;23.83;;;;;;;;;;1038084;28;20025;-77
2022/12/16 00:30:07;;;;;;;56.97;24.83;;;;;;;;;;1037883;28;20111;-76
2022/12/16 00:30:40;;;;;;;61.50;25.80;;;;;;;;;;1039295;28;20029;-76
2022/12/16 00:31:11;;;;;;;70.95;27.80;;;;;;;;;;1043678;28;20047;-76
2022/12/16 00:31:41;;;;;;;69.22;27.85;;;;;;;;;;1043590;28;20035;-76
2022/12/16 00:32:12;;;;;;;66.95;30.77;;;;;;;;;;1043739;28;20029;-77
2022/12/16 00:32:42;;;;;;;65.00;27.17;;;;;;;;;;1037063;28;20112;-77
2022/12/16 00:33:13;;;;;;;82.43;31.73;;;;;;;;;;1039093;28;20041;-76
2022/12/16 00:33:44;;;;;;;82.43;31.98;;;;;;;;;;1039394;28;20025;-76
2022/12/16 00:34:15;;;;;;;77.32;29.63;;;;;;;;;;1035698;28;20026;-77
2022/12/16 00:34:45;;;;;;;76.93;28.65;;;;;;;;;;1039253;28;20427;-77
2022/12/16 00:35:16;;;;;;;79.13;32.17;;;;;;;;;;1039767;28;20013;-77
2022/12/16 00:35:46;;;;;;;75.10;30.25;;;;;;;;;;1039808;28;20865;-78
2022/12/16 00:36:17;;;;;;;73.90;29.40;;;;;;;;;;1045177;28;20021;-77
2022/12/16 00:36:47;;;;;;;71.63;30.23;;;;;;;;;;1045166;28;20086;-77
2022/12/16 00:37:18;;;;;;;60.60;26.45;;;;;;;;;;1044665;28;20013;-77
2022/12/16 00:37:48;;;;;;;68.95;29.10;;;;;;;;;;1044084;28;20036;-77
2022/12/16 00:38:19;;;;;;;63.67;27.67;;;;;;;;;;1044130;28;20016;-77
2022/12/16 00:38:53;;;;;;;57.20;25.42;;;;;;;;;;1043896;28;20035;-77
2022/12/16 00:39:23;;;;;;;53.65;23.80;;;;;;;;;;1037339;28;20029;-77
2022/12/16 00:39:54;;;;;;;39.88;20.67;;;;;;;;;;1037852;28;20499;-76
2022/12/16 00:40:25;;;;;;;48.97;22.02;;;;;;;;;;1039014;28;20029;-76
2022/12/16 00:40:55;;;;;;;45.13;20.35;;;;;;;;;;1038213;28;20032;-77
2022/12/16 00:41:26;;;;;;;42.55;21.38;;;;;;;;;;1038033;28;20362;-77
2022/12/16 00:41:56;;;;;;;36.28;18.73;;;;;;;;;;1035434;28;20053;-76
2022/12/16 00:42:27;;;;;;;37.08;18.23;;;;;;;;;;1039538;28;20026;-77
2022/12/16 00:42:58;;;;;;;39.72;19.27;;;;;;;;;;1033844;28;20073;-77
2022/12/16 00:43:28;;;;;;;29.85;16.10;;;;;;;;;;1035292;28;20022;-78
2022/12/16 00:43:59;;;;;;;34.53;17.02;;;;;;;;;;1038012;28;20061;-76
2022/12/16 00:44:29;;;;;;;31.27;16.02;;;;;;;;;;1037469;28;20448;-77
2022/12/16 00:45:00;;;;;;;41.05;16.98;;;;;;;;;;1037529;28;20014;-77
2022/12/16 00:45:30;;;;;;;27.15;15.18;;;;;;;;;;1037950;28;20087;-77
2022/12/16 00:46:01;;;;;;;28.08;15.48;;;;;;;;;;1043154;28;20070;-77
2022/12/16 00:46:32;;;;;;;27.65;14.95;;;;;;;;;;1039237;28;20014;-77
2022/12/16 00:47:02;;;;;;;34.65;16.35;;;;;;;;;;1035389;28;20018;-76
2022/12/16 00:47:33;;;;;;;27.55;13.73;;;;;;;;;;1035375;28;20450;-76
2022/12/16 00:48:04;;;;;;;32.15;16.75;;;;;;;;;;1035431;28;20065;-77
2022/12/16 00:48:34;;;;;;;26.48;16.25;;;;;;;;;;1039043;28;20025;-77
2022/12/16 00:49:05;;;;;;;26.33;13.73;;;;;;;;;;1034556;28;20034;-76
2022/12/16 00:49:35;;;;;;;38.25;18.05;;;;;;;;;;1034598;28;20025;-76
2022/12/16 00:50:06;;;;;;;32.17;15.18;;;;;;;;;;1038125;28;20538;-77
2022/12/16 00:50:37;;;;;;;36.50;15.38;;;;;;;;;;1038340;28;20039;-76
2022/12/16 00:51:07;;;;;;;31.60;14.85;;;;;;;;;;1043946;28;20119;-77
2022/12/16 00:51:38;;;;;;;26.25;13.32;;;;;;;;;;1043278;28;20021;-77
2022/12/16 00:52:09;;;;;;;33.03;18.02;;;;;;;;;;1042714;28;20029;-77
2022/12/16 00:52:39;;;;;;;29.17;14.52;;;;;;;;;;1044100;28;20480;-77
2022/12/16 00:53:10;;;;;;;32.95;18.20;;;;;;;;;;1043716;28;20047;-76
2022/12/16 00:53:40;;;;;;;43.38;19.65;;;;;;;;;;1043938;28;20025;-77
2022/12/16 00:54:11;;;;;;;45.20;20.15;;;;;;;;;;1043872;28;20106;-77
2022/12/16 00:54:41;;;;;;;41.25;20.17;;;;;;;;;;1043881;28;20487;-77
2022/12/16 00:55:13;;;;;;;41.72;20.23;;;;;;;;;;1043828;28;20435;-77
2022/12/16 00:55:43;;;;;;;36.38;18.10;;;;;;;;;;1043631;28;20685;-77
2022/12/16 00:56:14;;;;;;;50.17;19.92;;;;;;;;;;1038020;28;20136;-77
2022/12/16 00:56:44;;;;;;;43.15;18.45;;;;;;;;;;1037633;28;20128;-76
2022/12/16 00:57:15;;;;;;;30.25;15.68;;;;;;;;;;1037617;28;20072;-77
2022/12/16 00:57:45;;;;;;;33.58;17.27;;;;;;;;;;1038388;28;20021;-76
2022/12/16 00:58:16;;;;;;;40.53;20.77;;;;;;;;;;1038830;28;20021;-77
2022/12/16 00:58:47;;;;;;;39.85;21.52;;;;;;;;;;1039164;28;20192;-77
2022/12/16 00:59:17;;;;;;;45.63;21.13;;;;;;;;;;1035447;28;20061;-77
2022/12/16 00:59:48;;;;;;;37.20;23.35;;;;;;;;;;1038425;28;20109;-76
2022/12/16 01:00:19;;;;;;;46.22;20.45;;;;;;;;;;1037723;28;20026;-77
2022/12/16 01:00:50;;;;;;;38.67;20.00;;;;;;;;;;1038582;28;20092;-77
2022/12/16 01:01:21;;;;;;;42.85;19.95;;;;;;;;;;1042439;28;20052;-79
2022/12/16 01:01:51;;;;;;;49.90;22.83;;;;;;;;;;1037694;28;20432;-76
2022/12/16 01:02:22;;;;;;;52.15;23.75;;;;;;;;;;1039155;28;20123;-76
2022/12/16 01:02:52;;;;;;;38.50;20.85;;;;;;;;;;1035263;28;20057;-77
2022/12/16 01:03:23;;;;;;;53.08;22.10;;;;;;;;;;1034282;28;20390;-77
2022/12/16 01:03:56;;;;;;;42.03;21.38;;;;;;;;;;1035275;28;20022;-77
2022/12/16 01:04:27;;;;;;;44.30;22.10;;;;;;;;;;1035340;28;20040;-77
2022/12/16 01:04:58;;;;;;;45.08;20.15;;;;;;;;;;1035110;28;20021;-79
2022/12/16 01:05:28;;;;;;;46.92;22.65;;;;;;;;;;1034561;28;20034;-78
2022/12/16 01:05:59;;;;;;;42.25;24.48;;;;;;;;;;1039185;28;20124;-78
2022/12/16 01:06:30;;;;;;;52.72;24.30;;;;;;;;;;1038829;28;20041;-78
2022/12/16 01:07:00;;;;;;;37.40;24.35;;;;;;;;;;1043923;28;20025;-78
2022/12/16 01:07:31;;;;;;;49.40;23.60;;;;;;;;;;1042469;28;20013;-78
2022/12/16 01:08:01;;;;;;;49.60;23.35;;;;;;;;;;1038572;28;20013;-78
2022/12/16 01:08:32;;;;;;;42.45;21.60;;;;;;;;;;1035383;28;20064;-79
2022/12/16 01:09:02;;;;;;;50.45;24.58;;;;;;;;;;1035469;28;20029;-78
2022/12/16 01:09:33;;;;;;;36.78;21.00;;;;;;;;;;1035427;28;20025;-78
2022/12/16 01:10:07;;;;;;;48.15;25.02;;;;;;;;;;1035637;28;20017;-79
2022/12/16 01:10:37;;;;;;;49.92;24.80;;;;;;;;;;1035077;28;20018;-78
2022/12/16 01:11:09;;;;;;;48.13;22.55;;;;;;;;;;1033733;28;20030;-78
2022/12/16 01:11:39;;;;;;;47.22;24.02;;;;;;;;;;1033263;28;20386;-79
2022/12/16 01:12:13;;;;;;;41.55;22.58;;;;;;;;;;1034999;28;20064;-78
2022/12/16 01:12:43;;;;;;;40.88;23.60;;;;;;;;;;1034691;28;20025;-78
2022/12/16 01:13:14;;;;;;;41.33;22.95;;;;;;;;;;1032787;28;20026;-78
2022/12/16 01:13:45;;;;;;;46.08;24.40;;;;;;;;;;1039363;28;20032;-78
2022/12/16 01:14:18;;;;;;;56.20;25.45;;;;;;;;;;1037347;28;20076;-79
2022/12/16 01:14:49;;;;;;;55.33;25.08;;;;;;;;;;1036535;28;20396;-79
2022/12/16 01:15:20;;;;;;;53.00;23.48;;;;;;;;;;1036110;28;20077;-76
2022/12/16 01:15:51;;;;;;;47.83;25.05;;;;;;;;;;1038187;28;20033;-78
2022/12/16 01:16:21;;;;;;;59.28;30.20;;;;;;;;;;1038953;28;20049;-78
2022/12/16 01:16:52;;;;;;;48.85;24.15;;;;;;;;;;1039249;28;20032;-77
2022/12/16 01:17:24;;;;;;;65.07;28.45;;;;;;;;;;1037206;28;20022;-78
2022/12/16 01:17:55;;;;;;;59.00;26.10;;;;;;;;;;1039326;28;20032;-78
2022/12/16 01:18:26;;;;;;;58.50;29.23;;;;;;;;;;1035665;28;20029;-78
2022/12/16 01:18:56;;;;;;;67.40;29.92;;;;;;;;;;1039337;28;20481;-78
2022/12/16 01:19:27;;;;;;;56.60;27.30;;;;;;;;;;1037757;28;20047;-77
2022/12/16 01:19:57;;;;;;;56.78;27.92;;;;;;;;;;1036407;28;21539;-78
2022/12/16 01:20:28;;;;;;;56.63;28.23;;;;;;;;;;1037191;28;20413;-78
2022/12/16 01:21:03;;;;;;;60.90;32.78;;;;;;;;;;1038646;28;20031;-79
2022/12/16 01:21:33;;;;;;;71.43;32.55;;;;;;;;;;1037287;28;20026;-77
2022/12/16 01:22:04;;;;;;;58.00;31.88;;;;;;;;;;1034955;28;20497;-78
2022/12/16 01:22:35;;;;;;;65.03;35.05;;;;;;;;;;1032244;28;20049;-78
2022/12/16 01:23:07;;;;;;;68.07;32.72;;;;;;;;;;1035392;28;20029;-79
2022/12/16 01:23:38;;;;;;;77.57;33.97;;;;;;;;;;1034058;28;20508;-78
2022/12/16 01:24:09;;;;;;;70.90;34.08;;;;;;;;;;1036911;28;20033;-77
2022/12/16 01:24:40;;;;;;;77.35;34.47;;;;;;;;;;1036928;28;20473;-78
2022/12/16 01:25:11;;;;;;;71.32;33.03;;;;;;;;;;1032525;28;20026;-78
2022/12/16 01:25:42;;;;;;;69.13;35.30;;;;;;;;;;1032763;28;20028;-77
2022/12/16 01:26:15;;;;;;;62.13;32.25;;;;;;;;;;1029959;28;20064;-77
2022/12/16 01:26:45;;;;;;;60.92;29.10;;;;;;;;;;1030128;28;20025;-77
2022/12/16 01:27:19;;;;;;;64.65;31.40;;;;;;;;;;1035787;28;20025;-77
2022/12/16 01:27:50;;;;;;;65.05;29.63;;;;;;;;;;1035408;28;20021;-77
2022/12/16 01:28:20;;;;;;;63.15;28.17;;;;;;;;;;1037747;28;20037;-77
2022/12/16 01:28:51;;;;;;;60.28;28.85;;;;;;;;;;1053290;23;20045;-77
2022/12/16 01:29:22;;;;;;;69.20;32.20;;;;;;;;;;1034626;28;20026;-78
2022/12/16 01:29:52;;;;;;;60.30;26.75;;;;;;;;;;1039529;28;20030;-78
2022/12/16 01:30:23;;;;;;;60.72;30.05;;;;;;;;;;1038801;28;20061;-78
2022/12/16 01:30:56;;;;;;;54.50;28.90;;;;;;;;;;1038721;28;20120;-77
2022/12/16 01:31:26;;;;;;;56.72;30.55;;;;;;;;;;1037142;28;20025;-77
2022/12/16 01:31:58;;;;;;;61.90;28.27;;;;;;;;;;1038588;28;20036;-77
2022/12/16 01:32:28;;;;;;;53.83;26.42;;;;;;;;;;1035188;28;20020;-77
2022/12/16 01:32:59;;;;;;;56.45;30.08;;;;;;;;;;1031651;28;20026;-77
2022/12/16 01:33:31;;;;;;;51.63;25.65;;;;;;;;;;1031120;28;20027;-79
2022/12/16 01:34:01;;;;;;;61.65;28.58;;;;;;;;;;1033443;28;20021;-79
2022/12/16 01:34:32;;;;;;;58.85;26.88;;;;;;;;;;1030371;28;20023;-80
2022/12/16 01:35:03;;;;;;;51.95;24.95;;;;;;;;;;1030797;28;20021;-81
2022/12/16 01:35:34;;;;;;;60.25;29.17;;;;;;;;;;1031655;28;20478;-79
2022/12/16 01:36:07;;;;;;;46.22;25.98;;;;;;;;;;1034729;28;20020;-80
2022/12/16 01:36:38;;;;;;;56.95;26.55;;;;;;;;;;1035007;28;20037;-80
2022/12/16 01:37:12;;;;;;;44.42;23.65;;;;;;;;;;1034834;28;20021;-80
2022/12/16 01:37:47;;;;;;;43.95;24.33;;;;;;;;;;1029596;28;20438;-81
2022/12/16 01:38:17;;;;;;;52.75;24.90;;;;;;;;;;1031482;28;20026;-78
2022/12/16 01:38:51;;;;;;;51.55;25.98;;;;;;;;;;1034689;28;20025;-81
2022/12/16 01:39:25;;;;;;;49.50;25.48;;;;;;;;;;1035816;28;20032;-82
2022/12/16 01:39:56;;;;;;;50.55;24.55;;;;;;;;;;1039728;28;20025;-80
2022/12/16 01:40:29;;;;;;;51.40;25.23;;;;;;;;;;1034176;28;20409;-81
2022/12/16 01:41:00;;;;;;;49.63;23.23;;;;;;;;;;1034994;28;20033;-80
2022/12/16 01:41:31;;;;;;;48.20;22.92;;;;;;;;;;1030870;28;20026;-81
2022/12/16 01:42:02;;;;;;;44.08;21.83;;;;;;;;;;1029586;28;20030;-80
2022/12/16 01:42:32;;;;;;;51.00;24.23;;;;;;;;;;1029471;28;21129;-79
2022/12/16 01:43:09;;;;;;;48.75;24.55;;;;;;;;;;1028096;28;20066;-81
2022/12/16 01:43:40;;;;;;;43.45;20.63;;;;;;;;;;1033547;28;20457;-79
2022/12/16 01:44:21;;;;;;;47.20;22.92;;;;;;;;;;1034345;28;20036;-80
2022/12/16 01:44:53;;;;;;;51.33;23.92;;;;;;;;;;1031099;28;20030;-82
2022/12/16 01:45:23;;;;;;;62.80;24.90;;;;;;;;;;1030136;28;20057;-83
2022/12/16 01:46:08;;;;;;;54.63;27.30;;;;;;;;;;1032060;28;20070;-82
2022/12/16 01:46:39;;;;;;;71.55;28.73;;;;;;;;;;1034617;28;20029;-82
2022/12/16 01:48:23;;;;;;;;;;;;;;;;;;1180192;23;21004;-80
2022/12/16 01:48:59;;;;;;;44.40;23.00;;;;;;;;;;1043834;28;19920;-81
2022/12/16 01:49:35;;;;;;;52.70;22.92;;;;;;;;;;1044935;28;20499;-80
2022/12/16 01:50:10;;;;;;;40.42;19.17;;;;;;;;;;1042845;28;20049;-80
2022/12/16 01:50:41;;;;;;;40.45;22.15;;;;;;;;;;1043012;28;20031;-81
2022/12/16 01:51:41;;;;;;;44.72;23.15;;;;;;;;;;1039868;28;20137;-81
2022/12/16 01:52:16;;;;;;;48.25;23.23;;;;;;;;;;1027835;28;20031;-79
2022/12/16 01:52:50;;;;;;;47.80;23.58;;;;;;;;;;1031593;28;20506;-80
2022/12/16 01:55:11;;;;;;;;;;;;;;;;;;1237327;22;20000;-79
2022/12/16 01:55:45;;;;;;;53.70;29.15;;;;;;;;;;1046402;28;20047;-80
2022/12/16 01:56:17;;;;;;;63.70;30.05;;;;;;;;;;1046332;28;20029;-79
2022/12/16 01:56:50;;;;;;;60.30;29.63;;;;;;;;;;1047248;28;20111;-79
2022/12/16 01:57:24;;;;;;;69.82;33.28;;;;;;;;;;1046770;28;20030;-79
2022/12/16 01:58:01;;;;;;;75.35;34.78;;;;;;;;;;1046422;28;20119;-79
2022/12/16 01:58:33;;;;;;;71.85;31.77;;;;;;;;;;1046136;28;20441;-78
2022/12/16 01:59:04;;;;;;;79.55;35.70;;;;;;;;;;1046744;28;20051;-78
2022/12/16 01:59:35;;;;;;;84.72;38.25;;;;;;;;;;1045144;28;20052;-78
2022/12/16 02:00:06;;;;;;;97.30;41.75;;;;;;;;;;1043827;28;21508;-78
2022/12/16 02:00:37;;;;;;;101.40;43.90;;;;;;;;;;1040404;28;20395;-78
2022/12/16 02:01:08;;;;;;;97.85;41.28;;;;;;;;;;1038739;28;20147;-78
2022/12/16 02:01:39;;;;;;;104.40;44.10;;;;;;;;;;1038513;28;20136;-79
2022/12/16 02:02:11;;;;;;;103.63;47.25;;;;;;;;;;1031704;28;20084;-79
2022/12/16 02:02:43;;;;;;;115.60;51.47;;;;;;;;;;1034314;28;20025;-79
2022/12/16 02:03:14;;;;;;;116.88;54.58;;;;;;;;;;1037093;28;20021;-81
2022/12/16 02:03:45;;;;;;;129.27;54.03;;;;;;;;;;1041804;28;20026;-78
2022/12/16 02:04:15;;;;;;;144.32;57.45;;;;;;;;;;1035541;28;20104;-81
2022/12/16 02:05:38;;;;;;;122.78;53.42;;;;;;;;;;1036255;28;20026;-82
2022/12/16 02:06:09;;;;;;;124.97;50.83;;;;;;;;;;1035986;28;20022;-81
2022/12/16 02:06:39;;;;;;;133.05;54.90;;;;;;;;;;1041604;28;20064;-81
2022/12/16 02:07:10;;;;;;;131.70;52.45;;;;;;;;;;1042134;28;20032;-80
2022/12/16 02:07:40;;;;;;;126.22;52.17;;;;;;;;;;1040695;28;20026;-80
2022/12/16 02:08:12;;;;;;;138.63;56.53;;;;;;;;;;1041494;28;20484;-81
2022/12/16 02:08:43;;;;;;;149.07;58.78;;;;;;;;;;1037671;28;20045;-81
2022/12/16 02:09:15;;;;;;;141.57;57.22;;;;;;;;;;1038691;28;20481;-82
2022/12/16 02:13:05;;;;;;;;;;;;;;;;;;1203942;22;19903;-83
2022/12/16 02:23:36;;;;;;;;;;;;;;;;;;1126649;22;20020;-80
2022/12/16 02:32:30;;;;;;;;;;;;;;;;;;1185340;23;20371;-79
2022/12/16 02:35:09;;;;;;;58.08;26.65;;;;;;;;;;1062252;22;20060;-81
2022/12/16 02:35:45;;;;;;;52.17;25.08;;;;;;;;;;1046002;28;20341;-81
2022/12/16 02:36:19;;;;;;;50.50;23.30;;;;;;;;;;1045819;28;20028;-81
2022/12/16 02:36:53;;;;;;;54.75;25.13;;;;;;;;;;1046475;28;20024;-82
2022/12/16 02:37:30;;;;;;;45.13;22.63;;;;;;;;;;1045201;28;20035;-82
2022/12/16 02:38:07;;;;;;;64.20;28.10;;;;;;;;;;1045844;28;20155;-82
2022/12/16 02:38:38;;;;;;;93.82;33.85;;;;;;;;;;1042223;28;20021;-82
2022/12/16 02:39:44;;;;;;;81.97;35.13;;;;;;;;;;1042067;28;20486;-82
2022/12/16 02:40:26;;;;;;;75.95;33.67;;;;;;;;;;1019363;28;20053;-82
2022/12/16 02:42:39;;;;;;;104.50;45.83;;;;;;;;;;1180994;23;19911;-80
2022/12/16 02:43:14;;;;;;;100.28;42.95;;;;;;;;;;1043807;28;20031;-80
2022/12/16 02:43:54;;;;;;;119.63;49.15;;;;;;;;;;1044287;28;20325;-80
2022/12/16 02:44:39;;;;;;;115.68;50.72;;;;;;;;;;1039292;28;20052;-79
2022/12/16 02:45:09;;;;;;;133.65;56.45;;;;;;;;;;1041954;28;20040;-82
2022/12/16 02:45:41;;;;;;;145.70;55.85;;;;;;;;;;1167514;23;20081;-81
2022/12/16 02:46:11;;;;;;;123.53;53.03;;;;;;;;;;1046246;28;20033;-81
2022/12/16 02:46:51;;;;;;;134.95;53.40;;;;;;;;;;1048092;28;20025;-82
2022/12/16 02:47:22;;;;;;;104.10;47.42;;;;;;;;;;1048782;28;20028;-82
2022/12/16 02:47:53;;;;;;;98.40;44.35;;;;;;;;;;1049184;28;20103;-79
2022/12/16 02:48:23;;;;;;;107.78;44.15;;;;;;;;;;1047670;28;20036;-80
2022/12/16 02:48:54;;;;;;;69.80;32.80;;;;;;;;;;1048161;28;20577;-81
2022/12/16 02:49:25;;;;;;;99.65;40.35;;;;;;;;;;1048846;28;20025;-81
2022/12/16 02:49:55;;;;;;;91.50;41.65;;;;;;;;;;1049814;28;20020;-81
2022/12/16 02:50:34;;;;;;;70.85;38.70;;;;;;;;;;1044562;28;20073;-82
2022/12/16 02:51:07;;;;;;;88.20;40.20;;;;;;;;;;1045150;28;20036;-81
2022/12/16 02:51:38;;;;;;;94.45;42.50;;;;;;;;;;1046437;28;20397;-79
2022/12/16 02:52:08;;;;;;;97.03;45.90;;;;;;;;;;1046228;28;20020;-78
2022/12/16 02:52:39;;;;;;;87.20;40.22;;;;;;;;;;1046048;28;20021;-81
2022/12/16 02:53:10;;;;;;;99.53;40.78;;;;;;;;;;1044549;28;20025;-81
2022/12/16 02:53:41;;;;;;;107.18;43.03;;;;;;;;;;1042262;28;20025;-81
2022/12/16 02:54:12;;;;;;;94.22;40.85;;;;;;;;;;1042458;28;20022;-82
2022/12/16 02:54:43;;;;;;;85.65;38.45;;;;;;;;;;1065744;23;20428;-81
2022/12/16 02:55:14;;;;;;;87.78;38.17;;;;;;;;;;1041980;23;20044;-79
2022/12/16 02:56:58;;;;;;;;;;;;;;;;;;1144237;22;19942;-81
2022/12/16 03:04:53;;;;;;;56.00;24.42;;;;;;;;;;1049672;28;20061;-84
2022/12/16 03:12:40;;;;;;;54.10;24.77;;;;;;;;;;943444;22;20019;-81
2022/12/16 03:13:15;;;;;;;47.15;24.10;;;;;;;;;;1049932;22;20323;-81
2022/12/16 03:13:49;;;;;;;52.47;21.88;;;;;;;;;;1077909;22;20063;-79
2022/12/16 03:14:21;;;;;;;56.53;26.13;;;;;;;;;;1047300;28;20135;-80
2022/12/16 03:14:54;;;;;;;54.90;22.40;;;;;;;;;;1200437;22;20038;-79
2022/12/16 03:15:26;;;;;;;47.70;24.77;;;;;;;;;;1049741;23;20497;-84
2022/12/16 03:16:06;;;;;;;52.65;24.83;;;;;;;;;;1020551;22;11484514;-84
2022/12/16 03:24:41;;;;;;;55.33;24.85;;;;;;;;;;1161416;23;20578;-80
2022/12/16 03:25:13;;;;;;;56.78;26.52;;;;;;;;;;1048108;23;20047;-77
2022/12/16 03:25:46;;;;;;;50.00;26.00;;;;;;;;;;1011038;29;20044;-79
2022/12/16 03:26:59;;;;;;;58.07;25.33;;;;;;;;;;1029766;23;20496;-78
2022/12/16 03:27:38;;;;;;;57.17;25.42;;;;;;;;;;1015592;29;20039;-78
2022/12/16 03:28:21;;;;;;;60.97;27.40;;;;;;;;;;1030932;23;20029;-80
2022/12/16 03:29:00;;;;;;;65.35;25.88;;;;;;;;;;1019022;29;20083;-78
2022/12/16 03:29:50;;;;;;;51.60;24.50;;;;;;;;;;1017901;29;20034;-78
2022/12/16 03:30:25;;;;;;;46.30;26.60;;;;;;;;;;1021729;23;20038;-76
2022/12/16 03:31:16;;;;;;;59.35;26.35;;;;;;;;;;1020025;29;20035;-79
2022/12/16 03:32:29;;;;;;;54.35;26.77;;;;;;;;;;1031971;23;20050;-80
2022/12/16 03:33:06;;;;;;;59.78;25.92;;;;;;;;;;1024286;28;20047;-80
2022/12/16 03:33:39;;;;;;;51.75;25.50;;;;;;;;;;1023877;28;20031;-79
2022/12/16 03:34:16;;;;;;;44.95;23.20;;;;;;;;;;1017810;29;20399;-80
2022/12/16 03:34:53;;;;;;;48.67;23.17;;;;;;;;;;1018465;29;20461;-79
2022/12/16 03:35:57;;;;;;;55.33;23.27;;;;;;;;;;1033298;23;20120;-78
2022/12/16 03:36:32;;;;;;;52.35;26.65;;;;;;;;;;1023777;28;20447;-78
2022/12/16 03:37:09;;;;;;;46.25;24.75;;;;;;;;;;1027741;28;20093;-79
2022/12/16 03:37:40;;;;;;;51.80;24.80;;;;;;;;;;1026595;28;20041;-77
2022/12/16 03:38:11;;;;;;;52.72;24.55;;;;;;;;;;1028112;28;20557;-79
2022/12/16 03:38:43;;;;;;;51.60;25.48;;;;;;;;;;1040906;23;20058;-79
2022/12/16 03:39:53;;;;;;;;;;;;;;;;;;1032486;23;20579;-80
2022/12/16 03:40:26;;;;;;;44.75;22.70;;;;;;;;;;1031039;23;20005;-78
2022/12/16 03:40:57;;;;;;;43.75;23.35;;;;;;;;;;1062288;23;20050;-81
2022/12/16 03:41:29;;;;;;;43.97;22.95;;;;;;;;;;1026327;23;20043;-82
2022/12/16 03:42:00;;;;;;;52.22;24.85;;;;;;;;;;1029723;23;20046;-79
2022/12/16 03:42:31;;;;;;;48.00;24.35;;;;;;;;;;987226;23;20372;-78
2022/12/16 03:43:04;;;;;;;55.03;24.73;;;;;;;;;;1020820;28;20039;-79
2022/12/16 03:43:35;;;;;;;53.72;28.02;;;;;;;;;;1021150;29;20031;-80
2022/12/16 03:44:06;;;;;;;67.82;31.60;;;;;;;;;;1093672;23;20031;-80
2022/12/16 03:44:37;;;;;;;67.32;30.45;;;;;;;;;;1111171;23;20025;-79
2022/12/16 03:45:49;;;;;;;61.03;27.75;;;;;;;;;;1060412;23;20165;-80
2022/12/16 03:46:58;;;;;;;64.10;28.08;;;;;;;;;;1030210;23;20121;-79
2022/12/16 03:47:29;;;;;;;45.13;24.17;;;;;;;;;;1074184;23;20066;-79
2022/12/16 03:48:00;;;;;;;53.35;27.70;;;;;;;;;;1036260;23;20032;-80
2022/12/16 03:49:11;;;;;;;;;;;;;;;;;;1185794;23;20018;-83
2022/12/16 03:49:44;;;;;;;54.70;24.40;;;;;;;;;;1086621;23;19988;-80
2022/12/16 03:51:19;;;;;;;52.70;20.80;;;;;;;;;;1044940;23;20056;-81
2022/12/16 03:51:51;;;;;;;41.30;19.45;;;;;;;;;;1163020;23;20031;-80
2022/12/16 03:53:01;;;;;;;;;;;;;;;;;;1021822;23;20052;-85
2022/12/16 03:55:58;;;;;;;34.10;17.48;;;;;;;;;;1014559;29;20045;-79
2022/12/16 03:58:11;;;;;;;;;;;;;;;;;;1095511;23;20653;-78
2022/12/16 03:58:42;;;;;;;34.08;17.65;;;;;;;;;;1034572;23;19957;-80
2022/12/16 03:59:13;;;;;;;38.05;15.80;;;;;;;;;;1017705;29;20028;-79
2022/12/16 03:59:44;;;;;;;41.50;20.02;;;;;;;;;;1062202;23;20620;-80
2022/12/16 04:00:15;;;;;;;46.05;20.58;;;;;;;;;;1015236;29;20039;-80
2022/12/16 04:00:45;;;;;;;41.95;21.02;;;;;;;;;;1017039;29;20406;-81
2022/12/16 04:01:52;;;;;;;41.38;18.48;;;;;;;;;;1022179;23;20044;-80
2022/12/16 04:03:25;;;;;;;26.60;13.75;;;;;;;;;;1026378;23;20356;-80
2022/12/16 04:03:55;;;;;;;28.88;14.65;;;;;;;;;;1110797;23;20043;-79
2022/12/16 04:04:26;;;;;;;25.17;12.48;;;;;;;;;;1018974;29;20432;-80
2022/12/16 04:04:57;;;;;;;28.80;13.70;;;;;;;;;;1020862;29;20020;-80
2022/12/16 04:05:28;;;;;;;26.83;14.35;;;;;;;;;;1020865;28;20618;-80
2022/12/16 04:06:28;;;;;;;26.10;12.73;;;;;;;;;;1145091;23;20103;-79
2022/12/16 04:07:39;;;;;;;26.67;14.20;;;;;;;;;;976107;23;20156;-79
2022/12/16 04:08:10;;;;;;;22.42;10.98;;;;;;;;;;1018343;29;20055;-80
2022/12/16 04:08:41;;;;;;;18.88;10.93;;;;;;;;;;1018558;29;20023;-77
2022/12/16 04:09:12;;;;;;;34.08;13.27;;;;;;;;;;1015686;29;20127;-81
2022/12/16 04:09:43;;;;;;;26.85;11.20;;;;;;;;;;1026520;23;20066;-79
2022/12/16 04:10:16;;;;;;;26.27;12.40;;;;;;;;;;1041358;23;20055;-82
2022/12/16 04:24:30;;;;;;;13.27;8.00;;;;;;;;;;856368;23;19931;-80
2022/12/16 04:30:17;;;;;;;16.13;9.07;;;;;;;;;;1022879;28;20076;-80
2022/12/16 04:30:34;;;;;;;19.83;10.13;;;;;;;;;;1023244;28;20614;-79
